Time;durP1;ratioP1;P1;durP2;ratioP2;P2;SDS_P1;SDS_P2;PMS_P1;PMS_P2;Temp;Humidity;BMP_temperature;BMP_pressure;BME280_temperature;BME280_humidity;BME280_pressure;Samples;Min_cycle;Max_cycle;Signal;HPM_P1;HPM_P2
2024/04/11 00:01:08;;;;;;;3.87;1.37;;;;;;;5.14;84.07;97225.41;5530717;26;20270;-84
2024/04/11 00:03:34;;;;;;;3.80;1.30;;;;;;;5.18;84.49;97221.56;5529524;26;20235;-85
2024/04/11 00:06:02;;;;;;;2.87;1.17;;;;;;;5.11;85.20;97233.53;5532294;25;20300;-85
2024/04/11 00:08:29;;;;;;;9.77;2.00;;;;;;;5.16;84.27;97234.72;5530579;26;20243;-85
2024/04/11 00:10:57;;;;;;;3.97;1.97;;;;;;;5.09;84.61;97218.00;5532831;25;20615;-85
2024/04/11 00:13:23;;;;;;;4.37;1.53;;;;;;;5.07;84.46;97211.28;5532097;25;20587;-85
2024/04/11 00:15:55;;;;;;;2.13;1.33;;;;;;;5.02;83.93;97208.28;5530220;26;20292;-84
2024/04/11 00:18:24;;;;;;;2.20;1.63;;;;;;;4.88;84.03;97212.19;5530612;26;20251;-85
2024/04/11 00:20:55;;;;;;;2.33;1.47;;;;;;;4.74;83.93;97221.31;5532644;25;20228;-84
2024/04/11 00:23:21;;;;;;;2.07;1.30;;;;;;;4.71;83.40;97205.13;5532422;25;20627;-85
2024/04/11 00:25:57;;;;;;;4.10;1.33;;;;;;;4.58;83.73;97209.81;5530625;26;20231;-85
2024/04/11 00:28:23;;;;;;;4.27;1.40;;;;;;;4.54;84.44;97203.25;5531980;25;20273;-85
2024/04/11 00:30:51;;;;;;;1.63;1.30;;;;;;;4.51;84.73;97206.94;5532361;25;20224;-85
2024/04/11 00:33:17;;;;;;;1.27;0.90;;;;;;;4.49;84.76;97213.28;5530682;26;20231;-84
2024/04/11 00:35:49;;;;;;;2.20;1.00;;;;;;;4.42;85.56;97214.81;5531711;25;20269;-85
2024/04/11 00:38:17;;;;;;;2.93;1.40;;;;;;;4.37;86.39;97217.84;5530410;26;20743;-85
2024/04/11 00:40:45;;;;;;;3.50;1.37;;;;;;;4.35;86.42;97216.31;5530360;26;20558;-84
2024/04/11 00:43:11;;;;;;;1.90;1.37;;;;;;;4.26;86.43;97210.16;5531704;25;20741;-85
2024/04/11 00:45:45;;;;;;;2.77;1.40;;;;;;;4.32;86.64;97207.00;5528540;26;20271;-84
2024/04/11 00:48:11;;;;;;;2.63;1.30;;;;;;;4.22;86.82;97206.22;5532410;25;20719;-85
2024/04/11 00:50:42;;;;;;;2.03;1.07;;;;;;;4.06;87.70;97209.38;5532615;25;20223;-84
2024/04/11 00:53:10;;;;;;;4.77;1.20;;;;;;;4.16;88.58;97214.56;5530206;26;20319;-85
2024/04/11 00:55:41;;;;;;;2.10;1.30;;;;;;;4.16;89.15;97212.78;5529517;26;20273;-85
2024/04/11 00:58:08;;;;;;;5.47;1.83;;;;;;;4.14;90.03;97216.50;5532353;25;20315;-85
2024/04/11 01:00:37;;;;;;;4.30;1.70;;;;;;;4.17;89.94;97218.84;5530307;26;20235;-84
2024/04/11 01:03:04;;;;;;;2.60;1.33;;;;;;;4.28;89.97;97223.88;5532240;25;20273;-84
2024/04/11 01:05:34;;;;;;;3.27;1.43;;;;;;;4.33;89.59;97220.88;5531476;25;20231;-84
2024/04/11 01:08:02;;;;;;;9.70;4.67;;;;;;;4.26;89.55;97231.03;5532411;25;20283;-84
2024/04/11 01:10:33;;;;;;;9.90;5.03;;;;;;;4.29;88.65;97224.72;5530795;26;20231;-84
2024/04/11 01:12:59;;;;;;;9.03;3.60;;;;;;;4.13;88.43;97220.88;5533055;25;20227;-84
2024/04/11 01:15:28;;;;;;;7.90;3.10;;;;;;;4.09;88.36;97221.31;5531103;25;20331;-85
2024/04/11 01:17:54;;;;;;;6.53;3.37;;;;;;;4.12;88.32;97221.03;5532949;25;20240;-85
2024/04/11 01:20:23;;;;;;;4.10;2.40;;;;;;;4.11;87.91;97216.75;5532846;26;20747;-84
2024/04/11 01:22:52;;;;;;;3.07;1.90;;;;;;;4.22;88.97;97223.63;5533455;25;20694;-84
2024/04/11 01:25:20;;;;;;;2.77;1.83;;;;;;;4.24;89.46;97216.50;5530731;26;20638;-85
2024/04/11 01:27:46;;;;;;;6.00;1.80;;;;;;;4.22;89.52;97220.03;5532742;25;20239;-85
2024/04/11 01:30:16;;;;;;;4.87;1.70;;;;;;;4.25;89.14;97215.53;5530158;26;20682;-85
2024/04/11 01:32:42;;;;;;;8.00;1.80;;;;;;;4.23;89.44;97210.44;5531918;25;20275;-85
2024/04/11 01:35:11;;;;;;;2.67;1.87;;;;;;;4.22;89.19;97215.81;5531527;25;20621;-85
2024/04/11 01:37:37;;;;;;;2.63;1.73;;;;;;;4.25;88.85;97224.16;5532668;25;20286;-84
2024/04/11 01:40:10;;;;;;;3.50;1.33;;;;;;;4.30;88.60;97211.53;5531648;25;20224;-85
2024/04/11 01:42:36;;;;;;;2.47;1.43;;;;;;;4.24;88.79;97211.28;5531917;25;20288;-84
2024/04/11 01:45:05;;;;;;;4.50;1.63;;;;;;;4.22;89.16;97212.22;5531220;25;20283;-85
2024/04/11 01:47:33;;;;;;;4.17;2.03;;;;;;;4.22;89.25;97209.63;5531641;25;20295;-85
2024/04/11 01:50:03;;;;;;;7.03;2.30;;;;;;;4.14;89.84;97200.84;5532032;25;21109;-85
2024/04/11 01:52:29;;;;;;;1.67;1.50;;;;;;;4.22;89.98;97203.59;5531999;26;20293;-85
2024/04/11 01:55:00;;;;;;;1.50;1.17;;;;;;;4.05;89.99;97199.91;5529624;26;20243;-85
2024/04/11 01:57:28;;;;;;;2.07;1.50;;;;;;;4.05;89.75;97197.31;5531672;25;20239;-85
2024/04/11 01:59:57;;;;;;;3.53;1.77;;;;;;;4.13;90.04;97205.25;5529766;26;20343;-85
2024/04/11 02:02:24;;;;;;;1.80;1.33;;;;;;;4.03;89.84;97199.22;5530138;26;20429;-85
2024/04/11 02:04:54;;;;;;;4.07;1.70;;;;;;;4.06;89.60;97198.13;5531251;25;20224;-85
2024/04/11 02:07:19;;;;;;;2.53;1.10;;;;;;;4.04;89.35;97205.25;5529584;26;20243;-85
2024/04/11 02:09:48;;;;;;;4.30;1.53;;;;;;;4.02;89.33;97199.34;5529157;26;20589;-85
2024/04/11 02:12:17;;;;;;;3.37;1.13;;;;;;;4.06;88.54;97196.31;5532556;25;20235;-85
2024/04/11 02:14:48;;;;;;;3.87;1.80;;;;;;;3.93;88.01;97198.41;5529386;26;20618;-85
2024/04/11 02:17:14;;;;;;;3.80;1.20;;;;;;;3.85;87.60;97200.06;5532497;25;20282;-85
2024/04/11 02:19:45;;;;;;;3.70;1.40;;;;;;;3.83;87.47;97207.16;5532006;25;20303;-85
2024/04/11 02:22:11;;;;;;;2.13;1.10;;;;;;;3.84;87.99;97201.84;5531878;25;20637;-84
2024/04/11 02:24:39;;;;;;;1.90;1.33;;;;;;;3.71;87.70;97214.31;5531805;25;20227;-84
2024/04/11 02:27:08;;;;;;;3.07;1.47;;;;;;;3.75;88.30;97212.25;5532076;26;20289;-84
2024/04/11 02:29:36;;;;;;;2.73;1.30;;;;;;;3.82;88.22;97221.19;5534442;26;20292;-84
2024/04/11 02:32:05;;;;;;;4.13;1.50;;;;;;;3.73;88.88;97227.22;5533871;26;20587;-85
2024/04/11 02:34:33;;;;;;;3.83;1.50;;;;;;;3.70;88.66;97222.25;5533991;26;20231;-85
2024/04/11 02:36:59;;;;;;;2.90;1.50;;;;;;;3.68;88.96;97216.38;5534772;26;20244;-85
2024/04/11 02:39:28;;;;;;;1.90;1.20;;;;;;;3.74;89.06;97228.84;5534336;26;20352;-85
2024/04/11 02:41:54;;;;;;;2.40;1.20;;;;;;;3.70;89.57;97227.47;5536745;25;20269;-85
2024/04/11 02:44:23;;;;;;;3.90;1.30;;;;;;;3.64;89.33;97212.41;5535505;25;20632;-85
2024/04/11 02:46:49;;;;;;;5.40;1.60;;;;;;;3.61;89.59;97223.09;5536332;25;20287;-85
2024/04/11 02:49:20;;;;;;;3.13;1.53;;;;;;;3.56;90.27;97223.50;5535541;26;20235;-85
2024/04/11 02:51:46;;;;;;;2.90;1.20;;;;;;;3.45;91.02;97218.41;5536491;25;20444;-85
2024/04/11 02:54:14;;;;;;;2.27;1.23;;;;;;;3.58;91.55;97225.94;5533786;26;20299;-84
2024/04/11 02:56:41;;;;;;;1.67;1.30;;;;;;;3.62;92.42;97225.53;5534664;26;20247;-85
2024/04/11 02:59:11;;;;;;;11.33;7.47;;;;;;;3.58;92.95;97215.53;5533942;26;20231;-85
2024/04/11 03:01:37;;;;;;;377.90;179.67;;;;;;;3.70;92.70;97224.88;5536521;25;20227;-84
2024/04/11 03:04:06;;;;;;;114.57;51.93;;;;;;;3.68;92.46;97229.41;5532921;26;20288;-84
2024/04/11 03:06:35;;;;;;;31.57;15.43;;;;;;;3.59;91.75;97233.66;5535316;25;20614;-85
2024/04/11 03:09:04;;;;;;;30.23;12.87;;;;;;;3.63;91.15;97226.38;5536982;25;20283;-85
2024/04/11 03:11:30;;;;;;;22.37;10.90;;;;;;;3.64;90.87;97228.84;5534416;26;20455;-85
2024/04/11 03:14:00;;;;;;;10.87;5.37;;;;;;;3.63;90.43;97214.19;5535912;25;20436;-85
2024/04/11 03:16:27;;;;;;;9.50;3.73;;;;;;;3.55;90.50;97228.84;5536567;25;20271;-85
2024/04/11 03:18:56;;;;;;;6.90;3.10;;;;;;;3.55;90.02;97219.22;5537404;25;20588;-85
2024/04/11 03:21:22;;;;;;;10.00;3.60;;;;;;;3.58;89.29;97232.00;5537225;25;20236;-85
2024/04/11 03:23:53;;;;;;;5.33;2.73;;;;;;;3.42;88.99;97224.72;5534971;25;20232;-85
2024/04/11 03:26:19;;;;;;;6.27;2.47;;;;;;;3.48;88.63;97231.97;5537504;25;20310;-85
2024/04/11 03:28:48;;;;;;;5.00;2.73;;;;;;;3.47;88.40;97225.13;5537848;25;20711;-85
2024/04/11 03:31:17;;;;;;;9.70;2.37;;;;;;;3.41;88.47;97223.06;5535488;26;20259;-85
2024/04/11 03:33:46;;;;;;;3.57;1.90;;;;;;;3.34;88.40;97224.53;5534955;26;20239;-85
2024/04/11 03:36:12;;;;;;;3.37;1.73;;;;;;;3.29;88.18;97226.72;5534533;26;20581;-85
2024/04/11 03:38:41;;;;;;;3.47;1.73;;;;;;;3.26;88.38;97226.19;5536942;25;20223;-84
2024/04/11 03:41:10;;;;;;;2.43;1.70;;;;;;;3.15;88.34;97231.50;5531748;26;20525;-85
2024/04/11 03:43:40;;;;;;;2.77;1.50;;;;;;;3.26;88.49;97236.59;5532880;25;20436;-84
2024/04/11 03:46:09;;;;;;;3.73;1.53;;;;;;;3.15;88.60;97242.72;5533433;25;20232;-85
2024/04/11 03:48:35;;;;;;;3.33;1.87;;;;;;;3.15;89.20;97241.91;5534133;25;20511;-85
2024/04/11 03:51:10;;;;;;;4.20;1.90;;;;;;;3.15;89.30;97247.13;5532054;26;20232;-85
2024/04/11 03:53:35;;;;;;;5.07;2.07;;;;;;;3.08;89.36;97246.00;5534573;25;20448;-85
2024/04/11 03:56:07;;;;;;;2.27;1.53;;;;;;;3.14;89.42;97256.69;5499879;25;20533;-85
2024/04/11 03:58:37;;;;;;;5.13;1.80;;;;;;;3.12;89.48;97252.59;5496989;26;20232;-85
2024/04/11 04:01:07;;;;;;;3.53;1.47;;;;;;;3.07;89.61;97258.19;5498282;26;20450;-85
2024/04/11 04:03:33;;;;;;;2.70;1.83;;;;;;;3.03;89.69;97261.19;5496098;26;20800;-85
2024/04/11 04:06:02;;;;;;;4.63;1.60;;;;;;;3.05;90.45;97254.91;5496512;26;20527;-85
2024/04/11 04:08:28;;;;;;;4.00;1.67;;;;;;;3.00;91.34;97257.06;5498333;26;20287;-85
2024/04/11 04:10:58;;;;;;;3.37;1.97;;;;;;;3.09;91.73;97261.47;5496162;26;20509;-85
2024/04/11 04:13:26;;;;;;;6.13;2.47;;;;;;;3.13;92.17;97260.25;5496464;26;20306;-85
2024/04/11 04:15:58;;;;;;;4.10;2.10;;;;;;;3.07;92.95;97255.59;5499148;26;20461;-86
2024/04/11 04:18:24;;;;;;;2.87;2.10;;;;;;;3.14;93.41;97251.50;5499040;26;20236;-85
2024/04/11 04:20:56;;;;;;;4.03;2.73;;;;;;;3.13;93.84;97252.44;5497769;26;20485;-85
2024/04/11 04:23:22;;;;;;;4.40;2.40;;;;;;;3.20;93.58;97261.38;5496840;26;20258;-84
2024/04/11 04:25:59;;;;;;;4.87;2.87;;;;;;;3.24;92.68;97264.56;5498042;26;20446;-85
2024/04/11 04:28:26;;;;;;;4.20;2.57;;;;;;;3.15;92.14;97266.16;5498918;26;20465;-85
2024/04/11 04:30:57;;;;;;;4.63;2.67;;;;;;;3.10;91.84;97264.91;5498168;26;20462;-84
2024/04/11 04:33:23;;;;;;;5.20;2.60;;;;;;;3.07;91.13;97265.16;5498251;26;20462;-85
2024/04/11 04:35:51;;;;;;;8.23;2.33;;;;;;;2.94;90.88;97273.19;5498820;26;20273;-85
2024/04/11 04:38:17;;;;;;;2.33;1.90;;;;;;;2.91;90.01;97268.25;5498011;26;20264;-85
2024/04/11 04:40:46;;;;;;;5.57;3.20;;;;;;;2.87;89.33;97274.66;5501001;26;20841;-85
2024/04/11 04:43:12;;;;;;;5.17;2.87;;;;;;;2.85;90.00;97275.78;5500237;26;20271;-85
2024/04/11 04:45:44;;;;;;;9.00;3.33;;;;;;;2.76;90.79;97282.56;5497772;26;20446;-85
2024/04/11 04:48:13;;;;;;;14.00;3.07;;;;;;;2.82;91.28;97292.47;5503361;26;20510;-83
2024/04/11 04:50:41;;;;;;;5.07;2.40;;;;;;;2.75;91.08;97297.34;5508374;26;20438;-84
2024/04/11 04:53:07;;;;;;;8.87;2.77;;;;;;;2.78;91.20;97291.03;5504106;26;20453;-85
2024/04/11 04:55:36;;;;;;;4.30;2.20;;;;;;;2.81;90.85;97293.41;5494707;26;20844;-85
2024/04/11 04:58:02;;;;;;;3.50;2.10;;;;;;;2.81;91.24;97298.59;5494722;26;20579;-84
2024/04/11 05:00:30;;;;;;;6.57;2.27;;;;;;;2.71;91.58;97297.72;5494008;26;20465;-85
2024/04/11 05:02:56;;;;;;;7.70;2.30;;;;;;;2.62;91.81;97296.72;5495825;26;20228;-85
2024/04/11 05:05:27;;;;;;;6.10;2.20;;;;;;;2.68;91.92;97296.19;5494389;25;20498;-88
2024/04/11 05:07:54;;;;;;;7.60;2.37;;;;;;;2.73;91.54;97298.44;5495472;26;20650;-85
2024/04/11 05:10:23;;;;;;;3.97;2.30;;;;;;;2.71;92.15;97298.53;5497281;26;20449;-85
2024/04/11 05:12:49;;;;;;;3.87;2.23;;;;;;;2.69;92.68;97308.25;5493738;26;20488;-85
2024/04/11 05:15:18;;;;;;;4.13;2.70;;;;;;;2.80;92.87;97310.78;5494894;26;20517;-85
2024/04/11 05:17:44;;;;;;;6.07;2.43;;;;;;;2.79;93.06;97311.75;5493691;26;20245;-85
2024/04/11 05:20:17;;;;;;;8.03;2.67;;;;;;;2.85;92.70;97307.78;5497790;26;20958;-85
2024/04/11 05:22:48;;;;;;;3.07;2.23;;;;;;;2.86;91.98;97319.88;5501622;26;20284;-85
2024/04/11 05:25:18;;;;;;;11.83;2.47;;;;;;;3.00;92.23;97305.69;5498960;26;20469;-85
2024/04/11 05:27:44;;;;;;;5.27;2.20;;;;;;;3.01;91.61;97305.53;5514345;26;20529;-85
2024/04/11 05:30:13;;;;;;;4.80;2.33;;;;;;;3.12;91.81;97310.69;5504760;26;20454;-85
2024/04/11 05:32:40;;;;;;;11.03;2.20;;;;;;;3.06;92.09;97308.59;5511937;26;20864;-85
2024/04/11 05:35:09;;;;;;;6.03;2.60;;;;;;;2.87;91.67;97316.28;5521688;26;20481;-86
2024/04/11 05:37:36;;;;;;;4.50;2.50;;;;;;;3.07;90.87;97319.81;5508923;25;20529;-85
2024/04/11 05:40:08;;;;;;;5.40;2.83;;;;;;;3.07;90.57;97315.44;5506363;26;20475;-85
2024/04/11 05:42:35;;;;;;;7.23;2.40;;;;;;;2.92;90.90;97319.34;5512757;25;20516;-85
2024/04/11 05:45:03;;;;;;;3.93;2.03;;;;;;;2.85;92.02;97322.59;5520310;25;20460;-85
2024/04/11 05:47:30;;;;;;;3.67;1.87;;;;;;;2.98;92.57;97321.44;5520656;25;20247;-85
2024/04/11 05:49:59;;;;;;;4.50;2.03;;;;;;;3.15;92.74;97326.03;5498321;26;20792;-84
2024/04/11 05:52:27;;;;;;;5.50;2.23;;;;;;;3.16;92.55;97312.06;5511461;26;20460;-85
2024/04/11 05:54:56;;;;;;;5.30;2.27;;;;;;;3.32;93.35;97321.97;5515026;25;20457;-85
2024/04/11 05:57:25;;;;;;;3.97;2.30;;;;;;;3.40;93.82;97309.97;5503286;25;20470;-85
2024/04/11 05:59:55;;;;;;;6.10;2.10;;;;;;;3.39;93.89;97308.31;5525748;25;20990;-85
2024/04/11 06:02:21;;;;;;;8.43;3.00;;;;;;;3.61;94.23;97298.63;5507953;26;20716;-85
2024/04/11 06:04:50;;;;;;;3.50;2.50;;;;;;;3.68;94.00;97312.78;5495669;25;20521;-85
2024/04/11 06:07:16;;;;;;;6.00;2.73;;;;;;;3.58;94.76;97322.34;5506037;26;20248;-86
2024/04/11 06:09:45;;;;;;;4.63;2.57;;;;;;;3.72;95.00;97314.16;5497721;26;20384;-85
2024/04/11 06:12:11;;;;;;;6.57;2.37;;;;;;;3.90;94.49;97320.34;5514823;26;20354;-85
2024/04/11 06:14:42;;;;;;;7.60;2.60;;;;;;;4.11;93.86;97321.06;5517320;25;20241;-85
2024/04/11 06:17:08;;;;;;;5.27;2.50;;;;;;;4.13;93.15;97312.16;5518947;26;20259;-85
2024/04/11 06:19:37;;;;;;;2.87;2.17;;;;;;;4.24;92.85;97305.16;5507590;26;20833;-85
2024/04/11 06:22:06;;;;;;;6.50;2.57;;;;;;;4.35;92.42;97303.22;5505933;25;20291;-86
2024/04/11 06:24:35;;;;;;;4.87;2.43;;;;;;;4.59;92.70;97311.47;5493846;26;20237;-85
2024/04/11 06:27:05;;;;;;;3.50;2.23;;;;;;;4.80;92.60;97324.34;5492322;26;20287;-85
2024/04/11 06:29:37;;;;;;;7.20;2.70;;;;;;;4.86;92.70;97321.16;5496089;26;20224;-85
2024/04/11 06:32:12;;;;;;;5.80;2.90;;;;;;;4.96;92.44;97324.56;5494045;26;20224;-85
2024/04/11 06:34:41;;;;;;;4.30;3.17;;;;;;;5.15;92.39;97316.69;5490768;26;20259;-85
2024/04/11 06:37:11;;;;;;;6.27;3.87;;;;;;;5.28;91.86;97325.00;5494147;26;20237;-85
2024/04/11 06:39:38;;;;;;;6.00;2.93;;;;;;;5.43;91.84;97331.44;5493571;26;20234;-85
2024/04/11 06:42:13;;;;;;;7.53;2.97;;;;;;;5.54;90.88;97317.34;5494340;26;20696;-84
2024/04/11 06:44:40;;;;;;;4.40;2.20;;;;;;;5.53;90.38;97334.00;5494000;26;20280;-85
2024/04/11 06:47:13;;;;;;;4.33;2.67;;;;;;;5.71;90.41;97331.41;5491535;26;20248;-86
2024/04/11 06:49:39;;;;;;;3.80;2.50;;;;;;;5.85;89.39;97333.56;5492201;26;20284;-86
2024/04/11 06:52:16;;;;;;;3.37;2.23;;;;;;;5.82;88.31;97331.22;5491837;26;20259;-86
2024/04/11 06:54:43;;;;;;;5.67;2.37;;;;;;;5.91;87.97;97333.81;5491540;26;20275;-86
2024/04/11 06:57:14;;;;;;;3.50;2.57;;;;;;;6.27;87.93;97329.44;5493510;26;20302;-86
2024/04/11 06:59:40;;;;;;;3.93;2.10;;;;;;;6.61;87.60;97335.63;5493746;26;20335;-86
2024/04/11 07:02:14;;;;;;;5.47;2.33;;;;;;;6.55;87.55;97330.19;5495392;26;20232;-86
2024/04/11 07:04:42;;;;;;;5.60;2.40;;;;;;;6.66;87.46;97329.94;5496194;26;20327;-86
2024/04/11 07:07:11;;;;;;;3.50;2.70;;;;;;;6.64;88.10;97321.41;5492436;26;20248;-86
2024/04/11 07:09:37;;;;;;;3.70;2.57;;;;;;;7.07;88.41;97323.19;5493527;26;20233;-86
2024/04/11 07:12:10;;;;;;;3.60;2.40;;;;;;;7.10;88.85;97326.31;5495183;26;20305;-86
2024/04/11 07:14:38;;;;;;;4.30;2.30;;;;;;;7.26;89.30;97326.41;5495080;26;20648;-88
2024/04/11 07:17:11;;;;;;;7.30;2.90;;;;;;;7.40;88.65;97325.84;5500487;26;20724;-86
2024/04/11 07:19:42;;;;;;;6.93;3.70;;;;;;;7.57;87.78;97326.72;5500334;26;20572;-86
2024/04/11 07:22:18;;;;;;;10.03;3.97;;;;;;;7.72;86.67;97324.34;5500053;26;20248;-86
2024/04/11 07:24:44;;;;;;;10.00;3.57;;;;;;;7.92;85.77;97331.78;5496509;26;20232;-86
2024/04/11 07:27:17;;;;;;;10.57;3.63;;;;;;;8.08;85.26;97331.81;5496691;26;20282;-86
2024/04/11 07:29:44;;;;;;;6.47;4.00;;;;;;;8.23;84.78;97327.63;5498777;26;20328;-86
2024/04/11 07:32:13;;;;;;;10.83;4.43;;;;;;;8.44;83.81;97326.34;5498029;26;20235;-86
2024/04/11 07:34:41;;;;;;;8.27;4.10;;;;;;;8.66;83.01;97323.09;5496391;26;20344;-86
2024/04/11 07:37:13;;;;;;;7.03;3.73;;;;;;;8.82;82.34;97317.84;5496362;26;20288;-86
2024/04/11 07:39:38;;;;;;;8.07;4.63;;;;;;;9.12;80.79;97319.75;5498379;26;20271;-86
2024/04/11 07:44:49;;;;;;;6.80;3.63;;;;;;;9.40;80.16;97314.94;5494889;26;20229;-86
2024/04/11 07:47:16;;;;;;;17.17;3.60;;;;;;;9.62;79.80;97316.81;5497605;26;20731;-86
2024/04/11 07:49:50;;;;;;;7.57;4.33;;;;;;;9.80;80.64;97312.16;5497222;26;20338;-86
2024/04/11 07:52:16;;;;;;;20.37;4.53;;;;;;;9.96;81.36;97308.63;5497367;26;20225;-86
2024/04/11 07:54:45;;;;;;;7.07;3.80;;;;;;;10.13;77.78;97318.91;5492734;25;20272;-88
2024/04/11 07:57:11;;;;;;;3.23;2.83;;;;;;;10.27;77.49;97314.69;5497741;26;20285;-86
2024/04/11 07:59:41;;;;;;;5.40;3.17;;;;;;;10.46;77.48;97311.59;5497464;26;20225;-86
2024/04/11 08:02:06;;;;;;;3.33;2.60;;;;;;;10.53;77.53;97323.09;5498113;26;20271;-86
2024/04/11 08:04:35;;;;;;;3.07;1.77;;;;;;;10.69;75.65;97328.22;5495569;26;20260;-86
2024/04/11 08:07:04;;;;;;;2.53;1.50;;;;;;;10.72;75.76;97317.34;5498082;26;20287;-86
2024/04/11 08:09:44;;;;;;;4.07;1.97;;;;;;;10.95;75.04;97309.41;5499213;26;20229;-86
2024/04/11 08:12:10;;;;;;;5.00;2.57;;;;;;;11.10;72.50;97315.53;5498410;26;20237;-86
2024/04/11 08:14:39;;;;;;;6.57;3.03;;;;;;;11.02;70.60;97310.31;5496873;26;20646;-86
2024/04/11 08:17:07;;;;;;;4.10;2.30;;;;;;;11.16;69.40;97308.69;5499542;26;20301;-85
2024/04/11 08:19:35;;;;;;;5.00;2.10;;;;;;;11.25;68.38;97310.28;5496367;26;20328;-86
2024/04/11 08:22:05;;;;;;;2.50;2.03;;;;;;;11.37;68.46;97308.81;5496184;26;20278;-86
2024/04/11 08:24:34;;;;;;;3.20;1.80;;;;;;;11.41;69.05;97320.66;5494594;26;20331;-87
2024/04/11 08:27:00;;;;;;;5.40;2.20;;;;;;;11.54;68.62;97318.19;5494437;26;20808;-86
2024/04/11 08:29:29;;;;;;;4.10;2.40;;;;;;;11.70;67.53;97321.50;5492938;26;20232;-85
2024/04/11 08:31:55;;;;;;;4.70;2.23;;;;;;;11.83;65.86;97306.84;5494585;26;20271;-86
2024/04/11 08:34:24;;;;;;;6.57;2.33;;;;;;;12.00;65.64;97319.63;5493972;26;20817;-85
2024/04/11 08:36:50;;;;;;;4.07;1.70;;;;;;;12.00;63.85;97310.91;5521791;26;20247;-86
2024/04/11 08:39:22;;;;;;;4.60;2.00;;;;;;;12.10;63.56;97312.25;5530837;26;20642;-85
2024/04/11 08:41:51;;;;;;;3.00;1.73;;;;;;;12.00;63.04;97316.19;5529812;26;20259;-86
2024/04/11 08:44:20;;;;;;;5.73;1.97;;;;;;;12.12;63.41;97314.69;5531255;25;20700;-86
2024/04/11 08:46:45;;;;;;;5.17;1.80;;;;;;;12.17;63.38;97312.31;5531231;26;20247;-87
2024/04/11 08:49:14;;;;;;;6.10;1.80;;;;;;;12.17;62.75;97313.16;5530523;26;20231;-86
2024/04/11 08:51:40;;;;;;;3.57;1.60;;;;;;;12.31;62.13;97308.81;5532225;25;20228;-86
2024/04/11 08:54:10;;;;;;;3.10;1.40;;;;;;;12.47;62.41;97309.41;5530843;25;20299;-86
2024/04/11 08:56:38;;;;;;;4.10;1.80;;;;;;;12.65;61.44;97308.16;5531067;25;20239;-86
2024/04/11 08:59:09;;;;;;;4.23;1.80;;;;;;;12.71;59.94;97312.66;5530089;25;20307;-86
2024/04/11 09:01:35;;;;;;;10.93;1.93;;;;;;;12.81;59.53;97311.31;5531682;25;20223;-86
2024/04/11 09:04:04;;;;;;;4.30;1.80;;;;;;;12.80;60.63;97312.34;5531489;25;20283;-86
2024/04/11 09:06:30;;;;;;;5.00;1.60;;;;;;;12.84;60.12;97316.25;5530265;26;20272;-86
2024/04/11 09:09:06;;;;;;;2.53;1.80;;;;;;;12.88;59.18;97312.19;5531876;25;20236;-86
2024/04/11 09:11:32;;;;;;;3.20;1.67;;;;;;;13.03;58.05;97307.66;5532026;25;20273;-86
2024/04/11 09:14:04;;;;;;;4.67;1.70;;;;;;;13.09;58.40;97314.06;5532150;25;20692;-86
2024/04/11 09:16:33;;;;;;;4.07;1.63;;;;;;;13.23;58.80;97309.69;5532123;25;20231;-87
2024/04/11 09:19:05;;;;;;;5.63;2.00;;;;;;;13.27;59.30;97316.22;5532174;25;20223;-86
2024/04/11 09:21:31;;;;;;;6.33;2.00;;;;;;;13.44;58.97;97320.19;5529646;26;20231;-85
2024/04/11 09:24:00;;;;;;;3.03;1.50;;;;;;;13.56;58.50;97316.00;5528747;26;20231;-86
2024/04/11 09:26:27;;;;;;;5.57;1.60;;;;;;;13.57;58.36;97314.97;5529298;25;20271;-86
2024/04/11 09:28:56;;;;;;;1.67;1.30;;;;;;;13.73;57.39;97320.78;5560752;25;20695;-86
2024/04/11 09:31:26;;;;;;;5.77;1.70;;;;;;;13.79;57.98;97321.84;5531663;25;20223;-85
2024/04/11 09:33:57;;;;;;;4.97;1.67;;;;;;;13.79;57.61;97319.97;5532036;26;20273;-87
2024/04/11 09:36:27;;;;;;;5.70;1.70;;;;;;;13.66;56.08;97322.56;5531918;25;20308;-86
2024/04/11 09:39:04;;;;;;;2.13;1.50;;;;;;;13.81;57.04;97331.22;5531030;26;20292;-86
2024/04/11 09:41:31;;;;;;;3.73;1.83;;;;;;;13.70;57.60;97328.28;5532115;25;20231;-86
2024/04/11 09:44:01;;;;;;;5.13;2.00;;;;;;;13.76;56.44;97328.34;5531287;25;20274;-86
2024/04/11 09:46:30;;;;;;;6.30;1.90;;;;;;;13.83;55.97;97333.66;5530047;26;20235;-86
2024/04/11 09:48:59;;;;;;;5.30;1.60;;;;;;;13.87;56.69;97326.94;5532471;25;20370;-87
2024/04/11 09:51:28;;;;;;;4.70;1.97;;;;;;;13.95;56.44;97334.75;5533186;25;20227;-86
2024/04/11 09:53:56;;;;;;;4.73;2.20;;;;;;;13.90;57.92;97336.34;5531115;25;20231;-85
2024/04/11 09:56:23;;;;;;;2.87;1.83;;;;;;;14.03;56.25;97342.50;5532480;25;20227;-86
2024/04/11 09:58:53;;;;;;;6.97;2.10;;;;;;;14.08;55.99;97339.25;5531350;25;20620;-87
2024/04/11 10:01:29;;;;;;;5.53;2.03;;;;;;;14.11;56.98;97337.06;5530536;26;20234;-86
2024/04/11 10:04:05;;;;;;;4.97;1.80;;;;;;;14.02;57.95;97340.91;5529077;26;20279;-86
2024/04/11 10:06:35;;;;;;;5.67;2.13;;;;;;;13.93;58.67;97344.72;5532044;25;20714;-87
2024/04/11 10:09:17;;;;;;;4.00;1.83;;;;;;;13.96;58.71;97339.00;5532982;25;20227;-86
2024/04/11 10:11:45;;;;;;;2.47;1.90;;;;;;;13.85;57.19;97339.59;5530179;25;20273;-85
2024/04/11 10:14:17;;;;;;;3.97;1.77;;;;;;;14.11;57.04;97344.19;5529507;25;20292;-85
2024/04/11 10:16:48;;;;;;;3.83;1.70;;;;;;;13.99;57.76;97348.41;5527086;26;20808;-85
2024/04/11 10:19:29;;;;;;;13.33;2.10;;;;;;;14.26;57.82;97344.88;5529130;25;20227;-86
2024/04/11 10:22:00;;;;;;;25.27;3.47;;;;;;;14.51;57.16;97344.16;5528848;25;20262;-85
2024/04/11 10:24:34;;;;;;;6.60;2.17;;;;;;;14.73;56.44;97341.31;5526500;26;20242;-86
2024/04/11 10:27:10;;;;;;;4.03;1.63;;;;;;;14.65;56.43;97347.66;5526276;26;20614;-86
2024/04/11 10:29:45;;;;;;;3.23;1.90;;;;;;;14.57;56.90;97336.41;5525695;26;20262;-86
2024/04/11 10:32:14;;;;;;;2.83;1.40;;;;;;;14.59;57.43;97334.34;5528703;25;20238;-88
2024/04/11 10:34:55;;;;;;;5.10;1.70;;;;;;;14.74;55.66;97332.34;5527231;25;20242;-87
2024/04/11 10:37:23;;;;;;;4.97;1.60;;;;;;;14.58;55.21;97332.75;5529068;25;20293;-86
2024/04/11 10:39:54;;;;;;;4.00;1.57;;;;;;;14.82;55.20;97334.84;5527465;25;20219;-86
2024/04/11 10:42:24;;;;;;;2.83;1.77;;;;;;;15.05;54.18;97320.13;5528421;25;20227;-86
2024/04/11 10:44:52;;;;;;;2.53;1.40;;;;;;;15.00;53.00;97337.69;5526805;25;20231;-87
2024/04/11 10:47:19;;;;;;;3.20;1.60;;;;;;;14.99;51.50;97341.34;5528281;25;20765;-87
2024/04/11 10:49:51;;;;;;;3.10;1.47;;;;;;;14.79;52.99;97351.97;5531670;25;20290;-86
2024/04/11 10:52:21;;;;;;;4.03;1.67;;;;;;;14.87;52.27;97342.97;5532144;25;20561;-86
2024/04/11 10:54:54;;;;;;;4.40;1.50;;;;;;;15.01;51.95;97340.13;5530531;25;20273;-88
2024/04/11 10:57:21;;;;;;;5.03;1.70;;;;;;;15.13;51.31;97332.38;5531134;25;20256;-88
2024/04/11 10:59:53;;;;;;;2.67;1.50;;;;;;;15.16;51.98;97330.16;5531114;26;20672;-87
2024/04/11 11:02:19;;;;;;;4.83;1.63;;;;;;;15.21;51.56;97325.06;5560557;25;20236;-86
2024/04/11 11:04:54;;;;;;;5.50;1.70;;;;;;;15.19;51.38;97326.28;5532261;25;20227;-88
2024/04/11 11:07:23;;;;;;;4.00;1.60;;;;;;;15.35;51.37;97319.72;5530658;26;20310;-88
2024/04/11 11:09:52;;;;;;;6.43;1.77;;;;;;;15.44;51.62;97332.59;5530248;26;20239;-87
2024/04/11 11:12:18;;;;;;;3.97;1.33;;;;;;;15.28;51.17;97321.56;5530860;26;20266;-86
2024/04/11 11:14:48;;;;;;;7.63;1.70;;;;;;;15.50;52.99;97329.13;5532837;25;20223;-87
2024/04/11 11:17:17;;;;;;;3.43;1.97;;;;;;;15.60;52.85;97324.22;5533146;25;20255;-88
2024/04/11 11:19:49;;;;;;;4.13;1.77;;;;;;;15.27;54.91;97326.06;5532698;26;20616;-87
2024/04/11 11:22:29;;;;;;;8.03;1.83;;;;;;;15.35;53.36;97322.38;5531416;26;20235;-88
2024/04/11 11:25:00;;;;;;;2.97;1.77;;;;;;;15.40;51.19;97318.09;5533155;26;20330;-87
2024/04/11 11:27:28;;;;;;;3.77;1.30;;;;;;;15.56;51.94;97316.84;5538341;25;20320;-87
2024/04/11 11:29:57;;;;;;;4.63;1.90;;;;;;;15.58;53.02;97310.31;5533762;26;20231;-87
2024/04/11 11:32:25;;;;;;;2.80;1.40;;;;;;;15.64;53.24;97309.47;5534335;25;20227;-87
2024/04/11 11:34:54;;;;;;;8.53;1.93;;;;;;;15.82;52.53;97299.00;5534456;25;20227;-88
2024/04/11 11:37:23;;;;;;;2.33;1.30;;;;;;;15.90;50.85;97303.25;5533722;25;20285;-87
2024/04/11 11:39:55;;;;;;;4.70;1.37;;;;;;;15.72;49.73;97301.28;5532015;26;20292;-87
2024/04/11 11:42:23;;;;;;;5.10;1.30;;;;;;;15.78;50.86;97294.31;5531955;26;20318;-87
2024/04/11 11:45:08;;;;;;;5.90;2.20;;;;;;;15.97;52.07;97312.03;5531310;26;20231;-87
2024/04/11 11:47:35;;;;;;;2.33;1.50;;;;;;;16.12;51.24;97295.81;5534182;25;20235;-87
2024/04/11 11:50:07;;;;;;;7.33;1.80;;;;;;;16.00;50.91;97292.19;5533421;25;20332;-87